createdAt,value
2023-04-04T00:03:42.210Z,-1.20
2023-04-04T00:13:46.472Z,-1.20
2023-04-04T00:23:54.611Z,-1.20
2023-04-04T00:34:00.223Z,-1.30
2023-04-04T00:44:05.465Z,-1.30
2023-04-04T00:54:09.128Z,-1.50
2023-04-04T01:04:15.708Z,-1.80
2023-04-04T01:14:19.484Z,-2.00
2023-04-04T01:24:27.852Z,-2.30
2023-04-04T01:34:50.744Z,-2.40
2023-04-04T01:44:57.278Z,-2.40
2023-04-04T01:55:08.757Z,-2.30
2023-04-04T02:05:12.769Z,-2.30
2023-04-04T02:15:19.460Z,-2.20
2023-04-04T02:25:24.704Z,-2.10
2023-04-04T02:35:30.036Z,-2.10
2023-04-04T02:45:33.786Z,-1.90
2023-04-04T02:55:57.716Z,-1.90
2023-04-04T03:06:01.577Z,-1.80
2023-04-04T03:16:07.849Z,-1.80
2023-04-04T03:26:21.314Z,-1.70
2023-04-04T03:36:26.512Z,-1.60
2023-04-04T03:46:30.437Z,-1.50
2023-04-04T03:56:38.039Z,-1.50
2023-04-04T04:06:44.017Z,-1.40
2023-04-04T04:16:49.228Z,-1.30
2023-04-04T04:26:57.869Z,-1.30
2023-04-04T04:37:03.435Z,-1.30
2023-04-04T04:47:14.191Z,-1.30
2023-04-04T04:57:20.005Z,-1.20
2023-04-04T05:07:24.389Z,-1.10
2023-04-04T05:17:30.999Z,-1.10
2023-04-04T05:27:41.090Z,-0.70
2023-04-04T05:37:46.210Z,-0.60
2023-04-04T05:47:53.288Z,-0.40
2023-04-04T05:58:01.482Z,0.10
2023-04-04T06:08:19.310Z,0.70
2023-04-04T06:18:24.552Z,1.20
2023-04-04T06:28:28.737Z,1.80
2023-04-04T06:38:34.249Z,2.40
2023-04-04T06:48:42.612Z,2.70
2023-04-04T06:58:47.952Z,3.10
2023-04-04T07:08:52.061Z,4.60
2023-04-04T07:18:58.227Z,5.80
2023-04-04T07:29:01.854Z,10.20
2023-04-04T07:39:07.239Z,14.10
2023-04-04T07:49:11.281Z,12.40
2023-04-04T07:59:16.505Z,15.90
2023-04-04T08:09:20.282Z,13.30
2023-04-04T08:19:25.403Z,17.40
2023-04-04T08:29:29.122Z,19.30
2023-04-04T08:39:34.265Z,21.40
2023-04-04T08:49:41.168Z,16.40
2023-04-04T08:59:46.353Z,18.20
2023-04-04T09:09:52.190Z,21.20
2023-04-04T09:19:57.226Z,18.00
2023-04-04T09:30:05.844Z,12.30
2023-04-04T09:40:12.042Z,11.60
2023-04-04T09:50:23.697Z,14.20
2023-04-04T10:00:32.162Z,14.50
2023-04-04T10:10:55.753Z,14.90
2023-04-04T10:31:22.751Z,11.10
2023-04-04T10:41:32.452Z,14.40
2023-04-04T10:51:45.148Z,12.00
2023-04-04T11:01:58.852Z,9.70
2023-04-04T11:12:20.123Z,8.80
2023-04-04T11:22:26.054Z,8.30
2023-04-04T11:32:52.870Z,7.30
2023-04-04T11:43:04.399Z,7.70
2023-04-04T11:53:10.009Z,9.30
2023-04-04T12:03:18.725Z,11.60
2023-04-04T12:13:22.669Z,12.40
2023-04-04T12:23:27.854Z,12.60
2023-04-04T12:33:33.827Z,13.00
2023-04-04T12:43:43.632Z,13.80
2023-04-04T12:53:56.706Z,14.00
2023-04-04T13:04:05.261Z,15.90
2023-04-04T13:14:09.469Z,11.50
2023-04-04T13:24:17.146Z,8.70
2023-04-04T13:34:23.071Z,7.70
2023-04-04T13:44:28.398Z,8.30
2023-04-04T13:54:32.442Z,6.80
2023-04-04T14:04:37.507Z,6.00
2023-04-04T14:14:41.492Z,5.40
2023-04-04T14:24:46.731Z,5.50
2023-04-04T14:34:50.446Z,5.40
2023-04-04T14:44:55.381Z,4.60
2023-04-04T14:54:59.259Z,3.80
2023-04-04T15:05:04.198Z,3.80
2023-04-04T15:15:09.539Z,3.70
2023-04-04T15:25:14.433Z,3.30
2023-04-04T15:35:22.234Z,3.10
2023-04-04T15:45:27.434Z,2.90
2023-04-04T15:55:31.167Z,2.80
2023-04-04T16:05:36.159Z,2.60
2023-04-04T16:15:40.161Z,2.20
2023-04-04T16:25:45.447Z,2.00
2023-04-04T16:35:49.663Z,1.60
2023-04-04T16:45:54.928Z,1.40
2023-04-04T16:55:58.631Z,1.20
2023-04-04T17:06:03.586Z,0.90
2023-04-04T17:16:08.352Z,0.40
2023-04-04T17:26:13.578Z,0.00
2023-04-04T17:36:17.155Z,0.00
2023-04-04T17:46:22.343Z,-0.30
2023-04-04T17:56:27.192Z,-0.60
2023-04-04T18:06:32.247Z,-0.80
2023-04-04T18:16:40.283Z,-1.10
2023-04-04T18:26:48.566Z,-1.30
2023-04-04T18:36:52.414Z,-1.40
2023-04-04T18:46:58.758Z,-1.10
2023-04-04T18:57:02.486Z,-0.90
2023-04-04T19:07:08.487Z,-0.80
2023-04-04T19:17:15.533Z,-0.60
2023-04-04T19:27:20.857Z,-0.50
2023-04-04T19:37:24.450Z,-0.50
2023-04-04T19:47:29.429Z,-0.40
2023-04-04T19:57:34.224Z,-0.30
2023-04-04T20:07:39.297Z,-0.30
2023-04-04T20:17:43.951Z,-0.20
2023-04-04T20:27:49.060Z,-0.20
2023-04-04T20:37:52.584Z,-0.20
2023-04-04T20:47:58.334Z,-0.20
2023-04-04T20:58:10.175Z,-0.20
2023-04-04T21:08:44.315Z,-0.30
2023-04-04T21:18:47.976Z,-0.40
2023-04-04T21:28:53.105Z,-0.40
2023-04-04T21:38:58.498Z,-0.60
2023-04-04T21:49:04.027Z,-0.80
2023-04-04T21:59:10.203Z,-1.30
2023-04-04T22:09:16.154Z,-2.10
2023-04-04T22:19:23.592Z,-2.90
2023-04-04T22:29:28.661Z,-3.40
2023-04-04T22:39:33.201Z,-3.80
2023-04-04T22:49:38.303Z,-4.10
2023-04-04T22:59:42.058Z,-4.50
2023-04-04T23:09:47.078Z,-4.80
2023-04-04T23:19:50.697Z,-5.00
2023-04-04T23:30:00.422Z,-5.20
2023-04-04T23:40:07.151Z,-5.40
2023-04-04T23:50:12.796Z,-5.60
